Latest Coastal Weather Observations for Cape Wessel

IDD60701

Issued at 4:45 pm CST Wednesday 3 September 2014 (issued every 10 minutes, with the page automatically refreshed every 10 minutes)

About coastal observations | Map of coastal stations | Coastal observations for NT | Marine services | Other Formats
Station Details ID: 200786 Name: CAPE WESSEL Lat: -11.00 Lon: 136.76 Height: 18.0 m
Data from the previous 72 hours. | See also: Recent months for locations in Northern Territory
Date/Time
CST
Temp

°C
Wind Pressure Rain
since 9am
mm
Weather Cloud Vis
km
Sea
Height
m
Swell
Dir
 
Speed
knots
Gust
knots
hPa Trend Height
m
Period
s
Dir
03/04:30pm 26.9 SSE 19 24 1012.4 - 0.0 - - - - - - -
03/04:00pm 27.6 SSE 19 23 1012.3 - 0.0 - - - - - - -
03/03:30pm 28.1 SSE 18 23 1012.4 - 0.0 - - - - - - -
03/03:00pm 28.8 SSE 18 23 1012.6 - 0.0 - - - - - - -
03/02:30pm 28.9 SSE 17 22 1013.0 - 0.0 - - - - - - -
03/02:00pm 29.5 SSE 17 21 1013.3 - 0.0 - - - - - - -
03/01:30pm 29.7 SSE 16 19 1013.7 - 0.0 - - - - - - -
03/01:00pm 30.2 SSE 16 19 1014.1 - 0.0 - - - - - - -
03/12:30pm 30.7 SSE 11 14 1014.4 - 0.0 - - - - - - -
03/12:00pm 30.8 SSE 11 13 1014.7 - 0.0 - - - - - - -
03/11:30am 30.1 SSE 11 14 1015.1 - 0.0 - - - - - - -
03/11:00am 30.1 SSE 12 16 1015.3 - 0.0 - - - - - - -
03/10:30am 29.6 SSE 10 13 1015.5 - 0.0 - - - - - - -
03/10:00am 27.7 SSE 10 13 1015.5 - 0.0 - - - - - - -
03/09:30am 28.1 SSE 10 12 1015.5 - 0.0 - - - - - - -
03/09:00am 26.4 SE 10 12 1015.3 - 0.0 - - - - - - -
03/08:30am 26.2 SE 9 11 1015.2 - 0.0 - - - - - - -
03/08:00am 26.0 SSE 11 13 1014.9 - 0.0 - - - - - - -
03/07:30am 24.1 SSE 9 13 1014.5 - 0.0 - - - - - - -
03/07:00am 22.9 SSE 10 13 1014.1 - 0.0 - - - - - - -
03/06:30am 22.4 SSE 10 11 1013.6 - 0.0 - - - - - - -
03/06:00am 22.4 SSE 9 11 1013.0 - 0.0 - - - - - - -
03/05:30am 22.2 SSE 8 10 1012.7 - 0.0 - - - - - - -
03/05:00am 21.1 S 6 7 1012.4 - 0.0 - - - - - - -
03/04:30am 21.5 S 6 7 1012.2 - 0.0 - - - - - - -
03/04:00am 22.1 S 7 9 1012.4 - 0.0 - - - - - - -
03/03:30am 22.3 S 8 11 1012.4 - 0.0 - - - - - - -
03/03:00am 22.3 S 8 10 1012.6 - 0.0 - - - - - - -
03/02:30am 22.4 S 8 9 1012.8 - 0.0 - - - - - - -
03/02:00am 22.9 SSE 10 12 1013.1 - 0.0 - - - - - - -
03/01:30am 23.2 SSE 12 14 1013.4 - 0.0 - - - - - - -
03/01:00am 23.6 SSE 13 16 1014.0 - 0.0 - - - - - - -
03/12:30am 23.7 SSE 12 15 1014.6 - 0.0 - - - - - - -
03/12:00am 23.6 SSE 12 15 1014.7 - 0.0 - - - - - - -
 
Date/Time
CST
Temp

°C
Wind Pressure Rain
since 9am
mm
Weather Cloud Vis
km
Sea
Height
m
Swell
Dir
 
Speed
knots
Gust
knots
hPa Trend Height
m
Period
s
Dir
02/11:30pm 23.8 SSE 12 15 1015.2 - 0.0 - - - - - - -
02/11:00pm 24.0 SSE 12 15 1015.3 - 0.0 - - - - - - -
02/10:30pm 24.0 SSE 13 16 1015.1 - 0.0 - - - - - - -
02/10:00pm 24.3 SSE 12 16 1015.0 - 0.0 - - - - - - -
02/09:30pm 24.3 SSE 12 16 1014.9 - 0.0 - - - - - - -
02/09:00pm 24.2 SSE 11 14 1014.5 - 0.0 - - - - - - -
02/08:30pm 24.2 SSE 12 15 1014.3 - 0.0 - - - - - - -
02/08:00pm 24.3 SSE 11 14 1014.0 - 0.0 - - - - - - -
02/07:30pm 24.6 SE 11 14 1013.8 - 0.0 - - - - - - -
02/07:00pm 24.7 SE 13 16 1013.4 - 0.0 - - - - - - -
02/06:30pm 24.8 SE 12 15 1013.0 - 0.0 - - - - - - -
02/06:00pm 25.4 SE 12 14 1012.7 - 0.0 - - - - - - -
02/05:30pm 26.0 SE 10 13 1012.7 - 0.0 - - - - - - -
02/05:00pm 27.5 ESE 10 13 1012.7 - 0.0 - - - - - - -
02/04:30pm 27.8 ESE 13 15 1012.7 - 0.0 - - - - - - -
02/04:00pm 27.8 ESE 12 16 1012.5 - 0.0 - - - - - - -
02/03:30pm 29.1 ESE 12 15 1012.7 - 0.0 - - - - - - -
02/03:00pm 29.5 ESE 13 17 1012.5 - 0.0 - - - - - - -
02/02:30pm 29.8 ESE 12 16 1012.7 - 0.0 - - - - - - -
02/02:00pm 30.2 ESE 13 16 1013.1 - 0.0 - - - - - - -
02/01:30pm 29.5 SE 14 17 1013.3 - 0.0 - - - - - - -
02/01:00pm 30.4 SE 13 17 1013.5 - 0.0 - - - - - - -
02/12:30pm 29.9 ESE 14 18 1014.0 - 0.0 - - - - - - -
02/12:00pm 30.2 ESE 13 16 1014.2 - 0.0 - - - - - - -
02/11:30am 29.7 ESE 14 17 1014.7 - 0.0 - - - - - - -
02/11:00am 29.3 ESE 13 16 1014.9 - 0.0 - - - - - - -
02/10:30am 28.7 E 13 16 1015.3 - 0.0 - - - - - - -
02/10:00am 28.4 ESE 12 15 1015.4 - 0.0 - - - - - - -
02/09:30am 27.7 E 11 15 1015.4 - 0.0 - - - - - - -
02/09:00am 27.6 E 10 12 1015.2 - 0.0 - - - - - - -
02/08:30am 26.7 ESE 10 12 1015.2 - 0.0 - - - - - - -
02/08:00am 25.7 ESE 10 12 1015.0 - 0.0 - - - - - - -
02/07:30am 24.6 ESE 10 13 1014.8 - 0.0 - - - - - - -
02/07:00am 23.6 SE 12 14 1014.5 - 0.0 - - - - - - -
02/06:30am 23.1 SE 12 15 1014.0 - 0.0 - - - - - - -
02/06:00am 23.2 SSE 12 15 1013.6 - 0.0 - - - - - - -
02/05:30am 23.4 SSE 12 16 1013.5 - 0.0 - - - - - - -
02/05:00am 23.4 SSE 12 15 1013.5 - 0.0 - - - - - - -
02/04:30am 23.5 SSE 11 15 1013.5 - 0.0 - - - - - - -
02/04:00am 23.6 SSE 12 14 1013.5 - 0.0 - - - - - - -
02/03:30am 23.5 SSE 12 14 1013.5 - 0.0 - - - - - - -
02/03:00am 23.7 SSE 12 15 1013.7 - 0.0 - - - - - - -
02/02:30am 24.0 SSE 13 16 1013.9 - 0.0 - - - - - - -
02/02:00am 23.7 SSE 14 17 1013.9 - 0.0 - - - - - - -
02/01:30am 23.6 SSE 13 16 1013.8 - 0.0 - - - - - - -
02/01:00am 23.7 SSE 13 16 1014.0 - 0.0 - - - - - - -
02/12:30am 23.8 SSE 13 16 1014.3 - 0.0 - - - - - - -
02/12:00am 23.8 SE 13 16 1014.3 - 0.0 - - - - - - -
 
Date/Time
CST
Temp

°C
Wind Pressure Rain
since 9am
mm
Weather Cloud Vis
km
Sea
Height
m
Swell
Dir
 
Speed
knots
Gust
knots
hPa Trend Height
m
Period
s
Dir
01/11:30pm 24.0 SE 14 16 1014.5 - 0.0 - - - - - - -
01/11:00pm 24.1 SE 14 16 1014.6 - 0.0 - - - - - - -
01/10:30pm 24.2 SE 14 16 1014.5 - 0.0 - - - - - - -
01/10:00pm 24.2 SE 14 17 1014.4 - 0.0 - - - - - - -
01/09:30pm 24.1 ESE 15 17 1014.1 - 0.0 - - - - - - -
01/09:00pm 24.3 ESE 15 17 1013.7 - 0.0 - - - - - - -
01/08:30pm 24.4 ESE 13 17 1013.6 - 0.0 - - - - - - -
01/08:00pm 24.5 ESE 14 18 1013.3 - 0.0 - - - - - - -
01/07:30pm 24.6 ESE 16 18 1012.8 - 0.0 - - - - - - -
01/07:00pm 25.1 ESE 15 19 1012.6 - 0.0 - - - - - - -
01/06:30pm 25.0 SE 13 16 1012.5 - 0.0 - - - - - - -
01/06:00pm 25.2 SE 15 19 1012.1 - 0.0 - - - - - - -
01/05:30pm 25.9 SE 16 19 1012.1 - 0.0 - - - - - - -
01/05:00pm 26.8 SE 17 20 1011.9 - 0.0 - - - - - - -
01/04:30pm 27.4 SE 16 19 1011.7 - 0.0 - - - - - - -
01/04:00pm 27.9 SE 16 19 1011.6 - 0.0 - - - - - - -
01/03:30pm 28.7 SE 15 20 1011.7 - 0.0 - - - - - - -
01/03:00pm 28.9 SE 17 20 1011.6 - 0.0 - - - - - - -
01/02:30pm 29.7 SE 16 19 1012.1 - 0.0 - - - - - - -
01/02:00pm 29.9 SE 16 20 1012.3 - 0.0 - - - - - - -
01/01:30pm 30.0 SE 15 18 1012.5 - 0.0 - - - - - - -
01/01:00pm 30.1 SE 15 18 1013.0 - 0.0 - - - - - - -
01/12:30pm 29.4 ESE 15 18 1013.3 - 0.0 - - - - - - -
01/12:00pm 30.1 SE 14 17 1013.5 - 0.0 - - - - - - -
01/11:30am 30.6 SE 12 15 1014.1 - 0.0 - - - - - - -
01/11:00am 29.7 SE 12 16 1014.5 - 0.0 - - - - - - -
01/10:30am 29.2 SE 12 15 1014.8 - 0.0 - - - - - - -
01/10:00am 29.0 SE 11 13 1014.9 - 0.0 - - - - - - -
01/09:30am 28.1 SE 11 14 1014.9 - 0.0 - - - - - - -
01/09:00am 27.5 SE 10 13 1014.7 - 0.0 - - - - - - -
01/08:30am 26.7 SE 10 12 1014.4 - 0.0 - - - - - - -
01/08:00am 25.8 SE 9 11 1014.1 - 0.0 - - - - - - -
01/07:30am 24.4 SE 11 13 1013.7 - 0.0 - - - - - - -
01/07:00am 23.1 SE 11 13 1013.2 - 0.0 - - - - - - -
01/06:30am 22.7 SSE 10 13 1012.9 - 0.0 - - - - - - -
01/06:00am 22.7 SE 11 13 1012.8 - 0.0 - - - - - - -
01/05:30am 22.9 SE 12 15 1012.6 - 0.0 - - - - - - -
01/05:00am 22.9 SSE 12 15 1012.6 - 0.0 - - - - - - -
01/04:30am 23.1 SSE 12 15 1012.5 - 0.0 - - - - - - -
01/04:00am 23.0 SSE 12 15 1012.5 - 0.0 - - - - - - -
01/03:30am 23.2 SSE 13 16 1012.5 - 0.0 - - - - - - -
01/03:00am 23.2 SSE 13 17 1012.5 - 0.0 - - - - - - -
01/02:30am 23.3 SSE 12 15 1012.9 - 0.0 - - - - - - -
01/02:00am 23.4 SSE 13 16 1013.2 - 0.0 - - - - - - -
01/01:30am 23.6 SE 13 16 1013.7 - 0.0 - - - - - - -
01/01:00am 23.7 SE 14 17 1013.8 - 0.0 - - - - - - -
01/12:30am 23.7 SE 14 17 1013.8 - 0.0 - - - - - - -
01/12:00am 24.0 SE 15 18 1013.8 - 0.0 - - - - - - -
 
Date/Time
CST
Temp

°C
Wind Pressure Rain
since 9am
mm
Weather Cloud Vis
km
Sea
Height
m
Swell
Dir
 
Speed
knots
Gust
knots
hPa Trend Height
m
Period
s
Dir
31/11:30pm 24.0 SE 15 19 1013.9 - 0.0 - - - - - - -
31/11:00pm 24.0 SE 16 19 1013.8 - 0.0 - - - - - - -
31/10:30pm 24.1 SE 16 20 1013.6 - 0.0 - - - - - - -
31/10:00pm 24.2 SE 16 20 1013.5 - 0.0 - - - - - - -
31/09:30pm 24.2 SE 16 21 1013.5 - 0.0 - - - - - - -
31/09:00pm 24.3 SE 14 18 1013.2 - 0.0 - - - - - - -
31/08:30pm 24.3 SE 14 17 1012.9 - 0.0 - - - - - - -
31/08:00pm 24.4 ESE 14 17 1012.5 - 0.0 - - - - - - -
31/07:30pm 24.4 ESE 13 16 1012.1 - 0.0 - - - - - - -
31/07:00pm 24.4 ESE 14 17 1011.7 - 0.0 - - - - - - -
31/06:30pm 24.5 ESE 13 17 1011.4 - 0.0 - - - - - - -
31/06:00pm 25.2 ESE 13 17 1011.0 - 0.0 - - - - - - -
31/05:30pm 25.9 ESE 14 17 1010.9 - 0.0 - - - - - - -
31/05:00pm 26.5 ESE 14 18 1010.7 - 0.0 - - - - - - -

Other Formats:

Comma delimited format used in spreadsheet applications
http://www.bom.gov.au/fwo/IDD60701/IDD60701.94147.axf

JavaScript Object Notation format (JSON) in row-major order
http://www.bom.gov.au/fwo/IDD60701/IDD60701.94147.json